createdAt,value
2019-06-20T14:22:07.736Z,69.36
2019-06-20T14:24:38.952Z,71.76
2019-06-20T14:27:09.587Z,71.19
2019-06-20T14:29:40.242Z,71.18
2019-06-20T14:32:21.833Z,71.48
2019-06-20T14:34:52.057Z,73.27
2019-06-20T14:37:22.820Z,75.31
2019-06-20T14:39:54.931Z,73.73
2019-06-20T14:42:25.628Z,73.46
2019-06-20T14:44:56.311Z,73.00
2019-06-20T14:47:26.929Z,73.40
2019-06-20T14:49:57.597Z,69.71
2019-06-20T14:52:28.223Z,72.57
2019-06-20T14:54:58.863Z,71.18
2019-06-20T14:57:29.484Z,71.99
2019-06-20T15:00:00.113Z,70.10
2019-06-20T15:02:38.482Z,73.43
2019-06-20T15:05:03.083Z,72.95
2019-06-20T15:07:33.957Z,72.50
2019-06-20T15:10:05.345Z,71.23
2019-06-20T15:12:35.972Z,69.36
2019-06-20T15:15:06.716Z,70.32
2019-06-20T15:17:37.314Z,71.60
2019-06-20T15:20:09.199Z,73.09
2019-06-20T15:22:39.820Z,74.10
2019-06-20T15:25:11.271Z,70.74
2019-06-20T15:27:41.897Z,71.09
2019-06-20T15:30:12.794Z,70.47
2019-06-20T15:32:55.260Z,71.89
2019-06-20T15:35:16.932Z,71.68
2019-06-20T15:37:48.475Z,72.26
2019-06-20T15:40:19.941Z,69.70
2019-06-20T15:42:51.546Z,69.45
2019-06-20T15:45:23.162Z,70.16
2019-06-20T15:47:53.885Z,72.17
2019-06-20T15:50:24.560Z,71.88
2019-06-20T15:52:55.195Z,69.44
2019-06-20T15:55:25.873Z,68.41
2019-06-20T15:57:56.655Z,68.23
2019-06-20T16:00:28.093Z,69.50
2019-06-20T16:03:09.528Z,69.66
2019-06-20T16:05:31.532Z,70.56
2019-06-20T16:08:02.483Z,68.67
2019-06-20T16:10:33.343Z,68.91
2019-06-20T16:13:04.045Z,71.06
2019-06-20T16:15:34.722Z,70.46
2019-06-20T16:18:05.416Z,68.78
2019-06-20T16:20:36.419Z,68.22
2019-06-20T16:23:07.090Z,70.74
2019-06-20T16:25:37.718Z,69.08
2019-06-20T16:28:08.378Z,68.31
2019-06-20T16:30:41.153Z,69.10
2019-06-20T16:33:24.011Z,67.89
2019-06-20T16:35:44.200Z,68.00
2019-06-20T16:38:14.877Z,67.07
2019-06-20T16:40:47.998Z,68.64
2019-06-20T16:45:48.060Z,68.52
2019-06-20T16:48:18.758Z,68.49
2019-06-20T16:50:49.391Z,68.22
2019-06-20T16:53:20.077Z,67.19
2019-06-20T16:55:50.764Z,69.54
2019-06-20T16:58:21.447Z,68.68
2019-06-20T17:00:52.108Z,67.80
2019-06-20T17:03:22.817Z,67.31
2019-06-20T17:05:53.453Z,66.54
2019-06-20T17:08:24.152Z,66.85
2019-06-20T17:10:55.193Z,66.57
2019-06-20T17:13:25.870Z,66.97
2019-06-20T17:15:56.612Z,68.24
2019-06-20T17:18:27.345Z,67.20
2019-06-20T17:20:58.107Z,66.88
2019-06-20T17:23:29.559Z,67.02
2019-06-20T17:26:01.513Z,65.66
2019-06-20T17:28:32.810Z,65.25
2019-06-20T17:31:03.715Z,65.28
2019-06-20T17:33:34.430Z,66.63
2019-06-20T17:36:17.789Z,65.77
2019-06-20T17:38:38.151Z,65.65
2019-06-20T17:41:08.786Z,68.77
2019-06-20T17:43:39.398Z,66.90
2019-06-20T17:46:10.050Z,66.10
2019-06-20T17:48:40.685Z,65.34
2019-06-20T17:51:11.319Z,65.54
2019-06-20T17:53:41.955Z,66.13
2019-06-20T17:56:12.914Z,65.92
2019-06-20T17:58:43.545Z,64.95
2019-06-20T18:01:14.138Z,63.17
2019-06-20T18:03:46.790Z,62.66
2019-06-20T18:06:17.894Z,62.68
2019-06-20T18:08:48.543Z,64.06
2019-06-20T18:11:19.252Z,64.02
2019-06-20T18:13:50.936Z,63.44
2019-06-20T18:16:25.302Z,63.73
2019-06-20T18:18:55.219Z,63.26
2019-06-20T18:21:25.952Z,63.28
2019-06-20T18:23:56.569Z,63.41
2019-06-20T18:26:27.639Z,63.71
2019-06-20T18:28:58.760Z,63.86
2019-06-20T18:31:29.514Z,64.22
2019-06-20T18:34:01.229Z,64.71
2019-06-20T18:36:34.651Z,63.85
2019-06-20T18:39:08.031Z,64.49
2019-06-20T18:41:39.019Z,64.61
2019-06-20T18:44:09.884Z,64.61
2019-06-20T18:46:40.809Z,64.54
2019-06-20T18:49:11.670Z,64.54
2019-06-20T18:51:42.487Z,63.42
2019-06-20T18:54:14.357Z,63.64
2019-06-20T18:56:45.350Z,63.85
2019-06-20T18:59:16.131Z,64.38
2019-06-20T19:01:46.992Z,64.84
2019-06-20T19:04:23.645Z,63.97
2019-06-20T19:06:54.352Z,66.01
2019-06-20T19:09:24.994Z,65.85
2019-06-20T19:11:55.634Z,64.27
2019-06-20T19:14:26.384Z,64.50
2019-06-20T19:16:57.133Z,66.04
2019-06-20T19:19:28.058Z,64.94
2019-06-20T19:21:58.964Z,64.67
2019-06-20T19:24:30.001Z,65.48
2019-06-20T19:27:00.854Z,67.87
2019-06-20T19:29:32.245Z,67.57
2019-06-20T19:32:03.330Z,67.93
2019-06-20T19:34:34.227Z,66.01
2019-06-20T19:37:04.958Z,64.81
2019-06-20T19:39:35.662Z,64.23
2019-06-20T19:42:06.396Z,64.10
2019-06-20T19:44:37.202Z,64.06
2019-06-20T19:47:08.038Z,67.13
2019-06-20T19:49:40.753Z,67.71
2019-06-20T19:52:11.715Z,67.32
2019-06-20T19:54:42.937Z,66.25
2019-06-20T19:57:13.654Z,65.06
2019-06-20T19:59:46.227Z,65.44
2019-06-20T20:02:17.148Z,65.19
2019-06-20T20:04:48.570Z,64.57
2019-06-20T20:07:19.933Z,64.35
2019-06-20T20:09:50.782Z,64.40
2019-06-20T20:12:21.454Z,64.41
2019-06-20T20:14:52.209Z,64.62
2019-06-20T20:17:22.924Z,65.75
2019-06-20T20:19:53.596Z,66.79
2019-06-20T20:22:24.264Z,66.61
2019-06-20T20:24:54.935Z,67.04
2019-06-20T20:27:25.547Z,66.28
2019-06-20T20:29:56.294Z,65.45
2019-06-20T20:32:27.108Z,65.59
2019-06-20T20:34:58.167Z,67.03
2019-06-20T20:37:28.927Z,66.70
2019-06-20T20:39:59.687Z,65.76
2019-06-20T20:42:30.512Z,65.04
2019-06-20T20:45:01.253Z,64.76
2019-06-20T20:47:32.533Z,64.43
2019-06-20T20:50:03.299Z,65.16
2019-06-20T20:52:34.016Z,66.01
2019-06-20T20:55:04.691Z,66.83
2019-06-20T20:57:35.677Z,66.37
2019-06-20T21:00:06.951Z,67.37
2019-06-20T21:02:37.617Z,66.11
2019-06-20T21:05:08.847Z,66.54
2019-06-20T21:07:39.886Z,66.78
2019-06-20T21:10:11.989Z,65.88
2019-06-20T21:12:42.612Z,65.21
2019-06-20T21:15:13.999Z,65.83
2019-06-20T21:17:44.683Z,65.97
2019-06-20T21:20:15.611Z,66.43
2019-06-20T21:22:46.232Z,68.04
2019-06-20T21:25:17.198Z,68.00
2019-06-20T21:27:47.850Z,67.18
2019-06-20T21:30:18.776Z,66.50
2019-06-20T21:32:49.496Z,66.65
2019-06-20T21:35:20.134Z,68.94
2019-06-20T21:37:50.768Z,66.70
2019-06-20T21:40:21.393Z,68.51
2019-06-20T21:42:51.982Z,68.85
2019-06-20T21:45:22.803Z,68.07
2019-06-20T21:47:53.435Z,68.04
2019-06-20T21:50:24.006Z,66.66
2019-06-20T21:52:54.651Z,65.81
2019-06-20T21:55:25.271Z,68.09
2019-06-20T21:57:55.898Z,67.70
2019-06-20T22:00:38.438Z,66.76
2019-06-20T22:03:09.535Z,67.83
2019-06-20T22:05:40.598Z,67.17
2019-06-20T22:08:11.228Z,69.06
2019-06-20T22:10:41.826Z,67.71
2019-06-20T22:13:12.455Z,68.70
2019-06-20T22:15:43.040Z,69.65
2019-06-20T22:18:13.959Z,69.25
2019-06-20T22:20:44.554Z,68.05
2019-06-20T22:23:15.201Z,69.36
2019-06-20T22:25:45.819Z,70.73
2019-06-20T22:28:16.401Z,72.60
2019-06-20T22:30:52.089Z,72.54
2019-06-20T22:33:22.697Z,73.20
2019-06-20T22:35:53.345Z,74.09
2019-06-20T22:38:23.953Z,73.45
2019-06-20T22:40:54.524Z,74.87
2019-06-20T22:43:25.114Z,72.85
2019-06-20T22:45:55.712Z,73.60
2019-06-20T22:48:26.639Z,74.60
2019-06-20T22:50:57.229Z,77.02
2019-06-20T22:53:27.846Z,76.45
2019-06-20T22:55:58.421Z,75.61
2019-06-20T22:58:29.005Z,73.74
2019-06-20T23:00:59.615Z,71.97
2019-06-20T23:03:30.174Z,71.83
2019-06-20T23:06:01.020Z,75.55
2019-06-20T23:08:31.605Z,75.43
2019-06-20T23:11:02.181Z,73.16
2019-06-20T23:13:32.789Z,73.76
2019-06-20T23:16:03.494Z,76.48
2019-06-20T23:18:34.093Z,76.51
2019-06-20T23:21:05.351Z,75.40
2019-06-20T23:23:35.969Z,72.13
2019-06-20T23:26:08.182Z,70.83
2019-06-20T23:28:38.857Z,70.30
2019-06-20T23:31:09.791Z,73.86
2019-06-20T23:33:40.379Z,74.74
2019-06-20T23:36:10.983Z,75.23
2019-06-20T23:38:41.590Z,76.24
2019-06-20T23:41:12.244Z,76.63
2019-06-20T23:43:42.827Z,76.13
2019-06-20T23:46:13.412Z,78.51
2019-06-20T23:48:44.051Z,78.05
2019-06-20T23:51:24.997Z,78.57
2019-06-20T23:53:47.014Z,78.24
2019-06-20T23:56:17.604Z,75.81
2019-06-20T23:58:48.203Z,75.80
